sensor_id;sensor_type;location;lat;lon;timestamp;pressure;altitude;pressure_sealevel;temperature;humidity
7026;BME280;3554;42.132;24.786;2022-12-07T00:00:03;99505.00;;;8.03;100.00
7026;BME280;3554;42.132;24.786;2022-12-07T00:02:30;99504.19;;;7.99;100.00
7026;BME280;3554;42.132;24.786;2022-12-07T00:04:57;99504.53;;;7.87;100.00
7026;BME280;3554;42.132;24.786;2022-12-07T00:07:24;99496.31;;;8.02;100.00
7026;BME280;3554;42.132;24.786;2022-12-07T00:09:51;99502.63;;;7.94;100.00
7026;BME280;3554;42.132;24.786;2022-12-07T00:12:18;99507.81;;;7.95;100.00
7026;BME280;3554;42.132;24.786;2022-12-07T00:14:46;99504.19;;;8.01;100.00
7026;BME280;3554;42.132;24.786;2022-12-07T00:17:13;99502.50;;;7.98;100.00
7026;BME280;3554;42.132;24.786;2022-12-07T00:19:40;99497.69;;;7.85;100.00
7026;BME280;3554;42.132;24.786;2022-12-07T00:22:06;99499.22;;;7.92;100.00
7026;BME280;3554;42.132;24.786;2022-12-07T00:24:33;99466.66;;;7.76;100.00
7026;BME280;3554;42.132;24.786;2022-12-07T00:27:00;99501.56;;;8.01;100.00
7026;BME280;3554;42.132;24.786;2022-12-07T00:29:27;99499.06;;;7.96;100.00
7026;BME280;3554;42.132;24.786;2022-12-07T00:31:55;99505.34;;;7.89;100.00
7026;BME280;3554;42.132;24.786;2022-12-07T00:34:22;99502.13;;;7.81;100.00
7026;BME280;3554;42.132;24.786;2022-12-07T00:36:49;99507.97;;;7.89;100.00
7026;BME280;3554;42.132;24.786;2022-12-07T00:39:16;99511.63;;;7.82;100.00
7026;BME280;3554;42.132;24.786;2022-12-07T00:41:43;99519.41;;;7.84;100.00
7026;BME280;3554;42.132;24.786;2022-12-07T00:44:10;99500.59;;;7.74;100.00
7026;BME280;3554;42.132;24.786;2022-12-07T00:46:37;99508.25;;;7.79;100.00
7026;BME280;3554;42.132;24.786;2022-12-07T00:49:05;99502.50;;;7.98;100.00
7026;BME280;3554;42.132;24.786;2022-12-07T00:51:32;99507.63;;;8.01;100.00
7026;BME280;3554;42.132;24.786;2022-12-07T00:53:58;99507.25;;;8.15;100.00
7026;BME280;3554;42.132;24.786;2022-12-07T00:56:26;99509.59;;;8.22;100.00
7026;BME280;3554;42.132;24.786;2022-12-07T00:58:54;99517.41;;;8.25;100.00
7026;BME280;3554;42.132;24.786;2022-12-07T01:01:22;99496.16;;;8.07;100.00
7026;BME280;3554;42.132;24.786;2022-12-07T01:03:49;99527.06;;;8.20;100.00
7026;BME280;3554;42.132;24.786;2022-12-07T01:06:19;99479.97;;;7.97;100.00
7026;BME280;3554;42.132;24.786;2022-12-07T01:08:46;99513.44;;;8.11;100.00
7026;BME280;3554;42.132;24.786;2022-12-07T01:11:15;99510.00;;;8.09;100.00
7026;BME280;3554;42.132;24.786;2022-12-07T01:13:42;99512.06;;;7.98;100.00
7026;BME280;3554;42.132;24.786;2022-12-07T01:16:11;99515.31;;;8.06;100.00
7026;BME280;3554;42.132;24.786;2022-12-07T01:18:39;99506.78;;;8.01;100.00
7026;BME280;3554;42.132;24.786;2022-12-07T01:21:09;99505.81;;;8.03;100.00
7026;BME280;3554;42.132;24.786;2022-12-07T01:23:38;99508.38;;;8.06;100.00
7026;BME280;3554;42.132;24.786;2022-12-07T01:26:07;99491.97;;;8.01;100.00
7026;BME280;3554;42.132;24.786;2022-12-07T01:28:34;99505.19;;;7.95;100.00
7026;BME280;3554;42.132;24.786;2022-12-07T01:31:02;99472.59;;;7.81;100.00
7026;BME280;3554;42.132;24.786;2022-12-07T01:33:31;99495.91;;;7.85;100.00
7026;BME280;3554;42.132;24.786;2022-12-07T01:36:02;99493.97;;;7.93;100.00
7026;BME280;3554;42.132;24.786;2022-12-07T01:38:29;99468.41;;;7.75;100.00
7026;BME280;3554;42.132;24.786;2022-12-07T01:40:59;99492.06;;;7.98;100.00
7026;BME280;3554;42.132;24.786;2022-12-07T01:43:28;99486.75;;;8.01;100.00
7026;BME280;3554;42.132;24.786;2022-12-07T01:45:56;99482.63;;;7.94;100.00
7026;BME280;3554;42.132;24.786;2022-12-07T01:48:25;99464.31;;;7.97;100.00
7026;BME280;3554;42.132;24.786;2022-12-07T01:50:55;99480.47;;;8.08;100.00
7026;BME280;3554;42.132;24.786;2022-12-07T01:53:24;99475.41;;;8.04;100.00
7026;BME280;3554;42.132;24.786;2022-12-07T01:55:54;99477.28;;;7.99;100.00
7026;BME280;3554;42.132;24.786;2022-12-07T01:58:23;99484.91;;;8.05;100.00
7026;BME280;3554;42.132;24.786;2022-12-07T02:00:51;99487.13;;;7.89;100.00
7026;BME280;3554;42.132;24.786;2022-12-07T02:03:20;99490.50;;;7.93;100.00
7026;BME280;3554;42.132;24.786;2022-12-07T02:05:49;99470.00;;;7.81;100.00
7026;BME280;3554;42.132;24.786;2022-12-07T02:08:17;99474.09;;;7.89;100.00
7026;BME280;3554;42.132;24.786;2022-12-07T02:10:44;99478.41;;;7.90;100.00
7026;BME280;3554;42.132;24.786;2022-12-07T02:13:13;99479.75;;;8.03;100.00
7026;BME280;3554;42.132;24.786;2022-12-07T02:15:54;99485.84;;;8.04;100.00
7026;BME280;3554;42.132;24.786;2022-12-07T02:18:33;99472.75;;;8.05;100.00
7026;BME280;3554;42.132;24.786;2022-12-07T02:21:07;99475.25;;;8.10;100.00
7026;BME280;3554;42.132;24.786;2022-12-07T02:24:09;99466.56;;;8.09;100.00
7026;BME280;3554;42.132;24.786;2022-12-07T02:26:51;99469.22;;;8.08;100.00
7026;BME280;3554;42.132;24.786;2022-12-07T02:29:25;99431.22;;;7.70;100.00
7026;BME280;3554;42.132;24.786;2022-12-07T02:32:00;99431.72;;;7.52;100.00
7026;BME280;3554;42.132;24.786;2022-12-07T02:34:37;99447.34;;;7.83;100.00
7026;BME280;3554;42.132;24.786;2022-12-07T02:37:11;99456.09;;;7.80;100.00
7026;BME280;3554;42.132;24.786;2022-12-07T02:39:45;99460.28;;;7.86;100.00
7026;BME280;3554;42.132;24.786;2022-12-07T02:42:16;99456.16;;;7.79;100.00
7026;BME280;3554;42.132;24.786;2022-12-07T02:44:46;99448.47;;;7.74;100.00
7026;BME280;3554;42.132;24.786;2022-12-07T02:47:16;99454.47;;;7.76;100.00
7026;BME280;3554;42.132;24.786;2022-12-07T02:49:44;99453.69;;;7.73;100.00
7026;BME280;3554;42.132;24.786;2022-12-07T02:52:11;99456.41;;;7.70;100.00
7026;BME280;3554;42.132;24.786;2022-12-07T02:54:38;99448.63;;;7.68;100.00
7026;BME280;3554;42.132;24.786;2022-12-07T02:57:14;99457.94;;;7.77;100.00
7026;BME280;3554;42.132;24.786;2022-12-07T02:59:59;99443.16;;;7.77;100.00
7026;BME280;3554;42.132;24.786;2022-12-07T03:02:33;99436.16;;;7.79;100.00
7026;BME280;3554;42.132;24.786;2022-12-07T03:05:12;99439.91;;;7.71;100.00
7026;BME280;3554;42.132;24.786;2022-12-07T03:07:50;99438.69;;;7.82;100.00
7026;BME280;3554;42.132;24.786;2022-12-07T03:10:24;99433.38;;;7.85;100.00
7026;BME280;3554;42.132;24.786;2022-12-07T03:13:01;99434.13;;;7.89;100.00
7026;BME280;3554;42.132;24.786;2022-12-07T03:15:34;99433.34;;;7.87;100.00
7026;BME280;3554;42.132;24.786;2022-12-07T03:18:04;99447.00;;;7.95;100.00
7026;BME280;3554;42.132;24.786;2022-12-07T03:20:32;99410.16;;;7.78;100.00
7026;BME280;3554;42.132;24.786;2022-12-07T03:23:03;99450.22;;;8.04;100.00
7026;BME280;3554;42.132;24.786;2022-12-07T03:25:34;99452.13;;;7.98;100.00
7026;BME280;3554;42.132;24.786;2022-12-07T03:28:05;99453.03;;;7.97;100.00
7026;BME280;3554;42.132;24.786;2022-12-07T03:30:39;99460.69;;;8.03;100.00
7026;BME280;3554;42.132;24.786;2022-12-07T03:33:11;99458.03;;;8.04;100.00
7026;BME280;3554;42.132;24.786;2022-12-07T03:35:43;99456.25;;;8.05;100.00
7026;BME280;3554;42.132;24.786;2022-12-07T03:38:15;99449.50;;;7.98;100.00
7026;BME280;3554;42.132;24.786;2022-12-07T03:40:47;99457.22;;;8.02;100.00
7026;BME280;3554;42.132;24.786;2022-12-07T03:43:16;99453.91;;;7.96;100.00
7026;BME280;3554;42.132;24.786;2022-12-07T03:45:53;99446.91;;;7.98;100.00
7026;BME280;3554;42.132;24.786;2022-12-07T03:48:29;99449.66;;;7.63;100.00
7026;BME280;3554;42.132;24.786;2022-12-07T03:51:03;99460.19;;;7.89;100.00
7026;BME280;3554;42.132;24.786;2022-12-07T03:53:36;99431.16;;;8.02;100.00
7026;BME280;3554;42.132;24.786;2022-12-07T03:56:07;99443.28;;;8.03;100.00
7026;BME280;3554;42.132;24.786;2022-12-07T03:58:36;99442.44;;;8.03;100.00
7026;BME280;3554;42.132;24.786;2022-12-07T04:01:04;99428.59;;;8.01;100.00
7026;BME280;3554;42.132;24.786;2022-12-07T04:03:31;99442.81;;;7.89;100.00
7026;BME280;3554;42.132;24.786;2022-12-07T04:05:59;99436.88;;;7.84;100.00
7026;BME280;3554;42.132;24.786;2022-12-07T04:08:25;99440.25;;;7.88;100.00
7026;BME280;3554;42.132;24.786;2022-12-07T04:10:52;99439.41;;;7.87;100.00
7026;BME280;3554;42.132;24.786;2022-12-07T04:13:19;99438.22;;;7.68;100.00
7026;BME280;3554;42.132;24.786;2022-12-07T04:15:46;99441.44;;;7.76;100.00
7026;BME280;3554;42.132;24.786;2022-12-07T04:18:14;99437.41;;;7.34;100.00
7026;BME280;3554;42.132;24.786;2022-12-07T04:20:41;99429.69;;;7.31;100.00
7026;BME280;3554;42.132;24.786;2022-12-07T04:23:08;99431.34;;;7.33;100.00
7026;BME280;3554;42.132;24.786;2022-12-07T04:25:34;99426.38;;;7.26;100.00
7026;BME280;3554;42.132;24.786;2022-12-07T04:28:01;99418.56;;;7.26;100.00
7026;BME280;3554;42.132;24.786;2022-12-07T04:30:28;99421.97;;;7.28;100.00
7026;BME280;3554;42.132;24.786;2022-12-07T04:32:55;99415.22;;;7.21;100.00
7026;BME280;3554;42.132;24.786;2022-12-07T04:35:23;99409.25;;;7.16;100.00
7026;BME280;3554;42.132;24.786;2022-12-07T04:37:49;99410.75;;;7.26;100.00
7026;BME280;3554;42.132;24.786;2022-12-07T04:40:16;99416.34;;;7.11;100.00
7026;BME280;3554;42.132;24.786;2022-12-07T04:42:43;99416.38;;;7.09;100.00
7026;BME280;3554;42.132;24.786;2022-12-07T04:45:10;99407.81;;;7.06;100.00
7026;BME280;3554;42.132;24.786;2022-12-07T04:47:37;99404.44;;;7.02;100.00
7026;BME280;3554;42.132;24.786;2022-12-07T04:50:05;99413.09;;;7.03;100.00
7026;BME280;3554;42.132;24.786;2022-12-07T04:52:33;99409.53;;;7.05;100.00
7026;BME280;3554;42.132;24.786;2022-12-07T04:55:00;99410.22;;;6.80;100.00
7026;BME280;3554;42.132;24.786;2022-12-07T04:57:27;99399.19;;;6.70;100.00
7026;BME280;3554;42.132;24.786;2022-12-07T04:59:54;99404.66;;;6.60;100.00
7026;BME280;3554;42.132;24.786;2022-12-07T05:02:20;99403.97;;;6.51;100.00
7026;BME280;3554;42.132;24.786;2022-12-07T05:04:47;99403.38;;;6.40;100.00
7026;BME280;3554;42.132;24.786;2022-12-07T05:07:14;99401.25;;;6.56;100.00
7026;BME280;3554;42.132;24.786;2022-12-07T05:09:42;99397.50;;;6.69;100.00
7026;BME280;3554;42.132;24.786;2022-12-07T05:12:09;99408.31;;;6.51;100.00
7026;BME280;3554;42.132;24.786;2022-12-07T05:14:36;99406.31;;;6.25;100.00
7026;BME280;3554;42.132;24.786;2022-12-07T05:17:02;99364.38;;;6.04;100.00
7026;BME280;3554;42.132;24.786;2022-12-07T05:19:29;99390.50;;;6.34;100.00
7026;BME280;3554;42.132;24.786;2022-12-07T05:21:56;99386.97;;;6.38;100.00
7026;BME280;3554;42.132;24.786;2022-12-07T05:24:23;99392.28;;;6.32;100.00
7026;BME280;3554;42.132;24.786;2022-12-07T05:26:51;99395.38;;;6.48;100.00
7026;BME280;3554;42.132;24.786;2022-12-07T05:29:18;99392.59;;;6.56;100.00
7026;BME280;3554;42.132;24.786;2022-12-07T05:31:45;99392.72;;;6.51;100.00
7026;BME280;3554;42.132;24.786;2022-12-07T05:34:12;99404.03;;;6.84;100.00
7026;BME280;3554;42.132;24.786;2022-12-07T05:36:39;99403.59;;;6.67;100.00
7026;BME280;3554;42.132;24.786;2022-12-07T05:39:06;99415.47;;;6.77;100.00
7026;BME280;3554;42.132;24.786;2022-12-07T05:41:33;99411.19;;;6.76;100.00
7026;BME280;3554;42.132;24.786;2022-12-07T05:44:19;99411.00;;;6.83;100.00
7026;BME280;3554;42.132;24.786;2022-12-07T05:46:46;99402.53;;;6.75;100.00
7026;BME280;3554;42.132;24.786;2022-12-07T05:49:12;99409.19;;;6.87;100.00
7026;BME280;3554;42.132;24.786;2022-12-07T05:51:39;99403.88;;;6.90;100.00
7026;BME280;3554;42.132;24.786;2022-12-07T05:54:06;99409.94;;;6.90;100.00
7026;BME280;3554;42.132;24.786;2022-12-07T05:56:33;99402.25;;;6.86;100.00
7026;BME280;3554;42.132;24.786;2022-12-07T05:59:00;99413.34;;;6.94;100.00
7026;BME280;3554;42.132;24.786;2022-12-07T06:01:45;99417.03;;;6.84;100.00
7026;BME280;3554;42.132;24.786;2022-12-07T06:04:12;99431.16;;;6.74;100.00
7026;BME280;3554;42.132;24.786;2022-12-07T06:06:39;99425.63;;;6.87;100.00
7026;BME280;3554;42.132;24.786;2022-12-07T06:09:06;99421.19;;;6.91;100.00
7026;BME280;3554;42.132;24.786;2022-12-07T06:11:33;99413.38;;;6.92;100.00
7026;BME280;3554;42.132;24.786;2022-12-07T06:14:17;99422.00;;;6.93;100.00
7026;BME280;3554;42.132;24.786;2022-12-07T06:16:45;99425.84;;;7.13;100.00
7026;BME280;3554;42.132;24.786;2022-12-07T06:19:12;99431.03;;;7.13;100.00
7026;BME280;3554;42.132;24.786;2022-12-07T06:21:39;99437.91;;;7.16;100.00
7026;BME280;3554;42.132;24.786;2022-12-07T06:24:06;99429.94;;;7.22;100.00
7026;BME280;3554;42.132;24.786;2022-12-07T06:26:33;99416.97;;;7.20;100.00
7026;BME280;3554;42.132;24.786;2022-12-07T06:29:00;99426.00;;;7.39;100.00
7026;BME280;3554;42.132;24.786;2022-12-07T06:31:26;99440.47;;;7.49;100.00
7026;BME280;3554;42.132;24.786;2022-12-07T06:33:58;99433.16;;;7.62;100.00
7026;BME280;3554;42.132;24.786;2022-12-07T06:36:25;99443.63;;;7.60;100.00
7026;BME280;3554;42.132;24.786;2022-12-07T06:38:52;99435.44;;;7.74;100.00
7026;BME280;3554;42.132;24.786;2022-12-07T06:41:19;99446.69;;;7.75;100.00
7026;BME280;3554;42.132;24.786;2022-12-07T06:43:46;99455.19;;;7.83;100.00
7026;BME280;3554;42.132;24.786;2022-12-07T06:46:13;99453.25;;;7.89;100.00
7026;BME280;3554;42.132;24.786;2022-12-07T06:48:40;99458.34;;;7.94;100.00
7026;BME280;3554;42.132;24.786;2022-12-07T06:51:09;99454.81;;;7.64;100.00
7026;BME280;3554;42.132;24.786;2022-12-07T06:53:36;99462.69;;;7.63;100.00
7026;BME280;3554;42.132;24.786;2022-12-07T06:56:04;99453.84;;;7.68;100.00
7026;BME280;3554;42.132;24.786;2022-12-07T06:58:31;99451.00;;;7.77;100.00
7026;BME280;3554;42.132;24.786;2022-12-07T07:00:57;99445.97;;;8.00;100.00
7026;BME280;3554;42.132;24.786;2022-12-07T07:03:24;99446.56;;;8.10;100.00
7026;BME280;3554;42.132;24.786;2022-12-07T07:05:51;99444.34;;;8.27;100.00
7026;BME280;3554;42.132;24.786;2022-12-07T07:08:19;99453.22;;;8.49;100.00
7026;BME280;3554;42.132;24.786;2022-12-07T07:10:46;99442.53;;;8.56;100.00
7026;BME280;3554;42.132;24.786;2022-12-07T07:13:13;99450.78;;;8.71;100.00
7026;BME280;3554;42.132;24.786;2022-12-07T07:15:39;99445.84;;;8.61;100.00
7026;BME280;3554;42.132;24.786;2022-12-07T07:18:06;99450.75;;;8.72;100.00
7026;BME280;3554;42.132;24.786;2022-12-07T07:20:33;99460.91;;;8.53;100.00
7026;BME280;3554;42.132;24.786;2022-12-07T07:23:00;99459.22;;;8.51;100.00
7026;BME280;3554;42.132;24.786;2022-12-07T07:25:28;99462.53;;;8.84;100.00
7026;BME280;3554;42.132;24.786;2022-12-07T07:27:55;99470.66;;;9.01;100.00
7026;BME280;3554;42.132;24.786;2022-12-07T07:30:23;99466.56;;;9.20;100.00
7026;BME280;3554;42.132;24.786;2022-12-07T07:32:50;99469.56;;;9.34;100.00
7026;BME280;3554;42.132;24.786;2022-12-07T07:35:17;99464.09;;;9.41;100.00
7026;BME280;3554;42.132;24.786;2022-12-07T07:37:44;99476.34;;;9.39;100.00
7026;BME280;3554;42.132;24.786;2022-12-07T07:40:11;99472.22;;;9.32;100.00
7026;BME280;3554;42.132;24.786;2022-12-07T07:42:39;99476.03;;;9.48;100.00
7026;BME280;3554;42.132;24.786;2022-12-07T07:45:07;99482.50;;;9.61;100.00
7026;BME280;3554;42.132;24.786;2022-12-07T07:47:35;99476.34;;;9.64;100.00
7026;BME280;3554;42.132;24.786;2022-12-07T07:50:02;99483.38;;;9.62;100.00
7026;BME280;3554;42.132;24.786;2022-12-07T07:52:29;99490.34;;;9.37;100.00
7026;BME280;3554;42.132;24.786;2022-12-07T07:54:55;99486.91;;;9.61;100.00
7026;BME280;3554;42.132;24.786;2022-12-07T07:57:22;99491.38;;;9.82;100.00
7026;BME280;3554;42.132;24.786;2022-12-07T07:59:50;99490.94;;;9.94;100.00
7026;BME280;3554;42.132;24.786;2022-12-07T08:02:18;99487.94;;;10.05;100.00
7026;BME280;3554;42.132;24.786;2022-12-07T08:04:46;99469.22;;;9.92;100.00
7026;BME280;3554;42.132;24.786;2022-12-07T08:07:14;99482.47;;;10.12;100.00
7026;BME280;3554;42.132;24.786;2022-12-07T08:09:41;99487.34;;;10.21;100.00
7026;BME280;3554;42.132;24.786;2022-12-07T08:12:09;99481.25;;;10.44;100.00
7026;BME280;3554;42.132;24.786;2022-12-07T08:14:35;99490.06;;;10.18;100.00
7026;BME280;3554;42.132;24.786;2022-12-07T08:17:04;99489.09;;;10.21;100.00
7026;BME280;3554;42.132;24.786;2022-12-07T08:19:31;99492.34;;;10.03;100.00
7026;BME280;3554;42.132;24.786;2022-12-07T08:21:58;99484.78;;;9.95;100.00
7026;BME280;3554;42.132;24.786;2022-12-07T08:24:24;99493.13;;;10.29;100.00
7026;BME280;3554;42.132;24.786;2022-12-07T08:26:52;99488.44;;;10.60;100.00
7026;BME280;3554;42.132;24.786;2022-12-07T08:29:19;99482.50;;;10.78;100.00
7026;BME280;3554;42.132;24.786;2022-12-07T08:31:46;99492.28;;;10.73;100.00
7026;BME280;3554;42.132;24.786;2022-12-07T08:34:14;99488.56;;;10.34;100.00
7026;BME280;3554;42.132;24.786;2022-12-07T08:36:41;99487.34;;;10.44;100.00
7026;BME280;3554;42.132;24.786;2022-12-07T08:39:08;99488.16;;;10.45;100.00
7026;BME280;3554;42.132;24.786;2022-12-07T08:41:35;99480.06;;;10.74;100.00
7026;BME280;3554;42.132;24.786;2022-12-07T08:44:02;99487.03;;;10.95;100.00
7026;BME280;3554;42.132;24.786;2022-12-07T08:46:32;99482.25;;;10.85;100.00
7026;BME280;3554;42.132;24.786;2022-12-07T08:49:05;99475.75;;;10.95;100.00
7026;BME280;3554;42.132;24.786;2022-12-07T08:51:35;99473.63;;;11.24;100.00
7026;BME280;3554;42.132;24.786;2022-12-07T08:54:05;99466.38;;;11.09;100.00
7026;BME280;3554;42.132;24.786;2022-12-07T08:56:33;99463.97;;;10.83;100.00
7026;BME280;3554;42.132;24.786;2022-12-07T08:59:01;99462.69;;;11.35;100.00
7026;BME280;3554;42.132;24.786;2022-12-07T09:01:28;99464.41;;;11.56;100.00
7026;BME280;3554;42.132;24.786;2022-12-07T09:03:55;99458.56;;;11.49;100.00
7026;BME280;3554;42.132;24.786;2022-12-07T09:06:22;99464.25;;;11.99;100.00
7026;BME280;3554;42.132;24.786;2022-12-07T09:08:52;99451.28;;;12.15;100.00
7026;BME280;3554;42.132;24.786;2022-12-07T09:11:20;99450.50;;;11.94;100.00
7026;BME280;3554;42.132;24.786;2022-12-07T09:13:47;99447.41;;;12.05;100.00
7026;BME280;3554;42.132;24.786;2022-12-07T09:16:14;99446.16;;;11.93;100.00
7026;BME280;3554;42.132;24.786;2022-12-07T09:18:40;99431.00;;;12.00;100.00
7026;BME280;3554;42.132;24.786;2022-12-07T09:21:08;99430.47;;;11.53;100.00
7026;BME280;3554;42.132;24.786;2022-12-07T09:23:35;99426.00;;;11.75;100.00
7026;BME280;3554;42.132;24.786;2022-12-07T09:26:04;99420.06;;;11.90;100.00
7026;BME280;3554;42.132;24.786;2022-12-07T09:28:31;99406.28;;;11.66;100.00
7026;BME280;3554;42.132;24.786;2022-12-07T09:30:58;99416.41;;;11.54;100.00
7026;BME280;3554;42.132;24.786;2022-12-07T09:33:25;99420.78;;;11.94;100.00
7026;BME280;3554;42.132;24.786;2022-12-07T09:35:52;99410.88;;;12.19;100.00
7026;BME280;3554;42.132;24.786;2022-12-07T09:38:19;99410.34;;;12.48;100.00
7026;BME280;3554;42.132;24.786;2022-12-07T09:40:47;99407.84;;;12.63;100.00
7026;BME280;3554;42.132;24.786;2022-12-07T09:43:18;99409.63;;;12.80;100.00
7026;BME280;3554;42.132;24.786;2022-12-07T09:45:47;99406.28;;;12.95;100.00
7026;BME280;3554;42.132;24.786;2022-12-07T09:48:18;99397.88;;;13.06;100.00
7026;BME280;3554;42.132;24.786;2022-12-07T09:50:47;99393.59;;;12.86;100.00
7026;BME280;3554;42.132;24.786;2022-12-07T09:53:16;99404.53;;;12.60;100.00
7026;BME280;3554;42.132;24.786;2022-12-07T09:55:45;99398.84;;;12.86;100.00
7026;BME280;3554;42.132;24.786;2022-12-07T09:58:19;99398.97;;;12.66;100.00
7026;BME280;3554;42.132;24.786;2022-12-07T10:00:47;99376.25;;;12.29;100.00
7026;BME280;3554;42.132;24.786;2022-12-07T10:03:15;99395.13;;;12.73;100.00
7026;BME280;3554;42.132;24.786;2022-12-07T10:05:45;99388.38;;;13.03;100.00
7026;BME280;3554;42.132;24.786;2022-12-07T10:08:14;99382.41;;;12.47;100.00
7026;BME280;3554;42.132;24.786;2022-12-07T10:10:44;99385.38;;;11.65;100.00
7026;BME280;3554;42.132;24.786;2022-12-07T10:13:12;99383.78;;;11.61;100.00
7026;BME280;3554;42.132;24.786;2022-12-07T10:15:47;99378.25;;;12.06;100.00
7026;BME280;3554;42.132;24.786;2022-12-07T10:18:25;99369.66;;;12.02;100.00
7026;BME280;3554;42.132;24.786;2022-12-07T10:21:12;99373.56;;;12.12;100.00
7026;BME280;3554;42.132;24.786;2022-12-07T10:23:40;99375.25;;;12.32;100.00
7026;BME280;3554;42.132;24.786;2022-12-07T10:26:29;99368.16;;;12.69;100.00
7026;BME280;3554;42.132;24.786;2022-12-07T10:28:59;99356.56;;;12.73;100.00
7026;BME280;3554;42.132;24.786;2022-12-07T10:31:28;99356.66;;;12.72;100.00
7026;BME280;3554;42.132;24.786;2022-12-07T10:33:57;99352.19;;;12.91;100.00
7026;BME280;3554;42.132;24.786;2022-12-07T10:36:26;99342.91;;;12.84;100.00
7026;BME280;3554;42.132;24.786;2022-12-07T10:39:00;99346.94;;;12.91;100.00
7026;BME280;3554;42.132;24.786;2022-12-07T10:41:27;99350.25;;;12.77;100.00
7026;BME280;3554;42.132;24.786;2022-12-07T10:43:55;99353.88;;;13.26;100.00
7026;BME280;3554;42.132;24.786;2022-12-07T10:46:48;99356.53;;;13.59;100.00
7026;BME280;3554;42.132;24.786;2022-12-07T10:49:38;99363.47;;;13.77;100.00
7026;BME280;3554;42.132;24.786;2022-12-07T10:52:17;99362.47;;;13.79;100.00
7026;BME280;3554;42.132;24.786;2022-12-07T10:54:51;99357.44;;;12.91;100.00
7026;BME280;3554;42.132;24.786;2022-12-07T10:57:35;99355.16;;;13.02;100.00
7026;BME280;3554;42.132;24.786;2022-12-07T11:00:18;99347.31;;;12.83;100.00
7026;BME280;3554;42.132;24.786;2022-12-07T11:02:58;99343.59;;;12.87;100.00
7026;BME280;3554;42.132;24.786;2022-12-07T11:05:35;99344.53;;;12.86;100.00
7026;BME280;3554;42.132;24.786;2022-12-07T11:08:09;99332.81;;;13.11;100.00
7026;BME280;3554;42.132;24.786;2022-12-07T11:10:45;99324.75;;;13.14;100.00
7026;BME280;3554;42.132;24.786;2022-12-07T11:13:24;99322.97;;;13.14;100.00
7026;BME280;3554;42.132;24.786;2022-12-07T11:16:02;99324.44;;;13.20;100.00
7026;BME280;3554;42.132;24.786;2022-12-07T11:18:41;99320.50;;;13.28;100.00
7026;BME280;3554;42.132;24.786;2022-12-07T11:21:19;99318.97;;;13.07;100.00
7026;BME280;3554;42.132;24.786;2022-12-07T11:23:52;99315.78;;;13.01;100.00
7026;BME280;3554;42.132;24.786;2022-12-07T11:26:34;99319.44;;;13.15;100.00
7026;BME280;3554;42.132;24.786;2022-12-07T11:29:21;99314.78;;;13.20;100.00
7026;BME280;3554;42.132;24.786;2022-12-07T11:31:59;99321.44;;;13.27;100.00
7026;BME280;3554;42.132;24.786;2022-12-07T11:34:37;99304.75;;;13.11;100.00
7026;BME280;3554;42.132;24.786;2022-12-07T11:37:10;99305.06;;;13.05;100.00
7026;BME280;3554;42.132;24.786;2022-12-07T11:39:44;99308.06;;;13.15;100.00
7026;BME280;3554;42.132;24.786;2022-12-07T11:42:16;99297.25;;;13.04;100.00
7026;BME280;3554;42.132;24.786;2022-12-07T11:44:50;99299.97;;;12.85;100.00
7026;BME280;3554;42.132;24.786;2022-12-07T11:47:25;99293.13;;;12.98;100.00
7026;BME280;3554;42.132;24.786;2022-12-07T11:50:03;99289.91;;;13.10;100.00
7026;BME280;3554;42.132;24.786;2022-12-07T11:52:39;99289.69;;;13.15;100.00
7026;BME280;3554;42.132;24.786;2022-12-07T11:55:19;99277.03;;;13.06;100.00
7026;BME280;3554;42.132;24.786;2022-12-07T11:57:52;99272.72;;;13.05;100.00
7026;BME280;3554;42.132;24.786;2022-12-07T12:00:23;99271.97;;;13.01;100.00
7026;BME280;3554;42.132;24.786;2022-12-07T12:02:53;99269.84;;;13.25;100.00
7026;BME280;3554;42.132;24.786;2022-12-07T12:05:26;99277.16;;;13.35;100.00
7026;BME280;3554;42.132;24.786;2022-12-07T12:08:01;99274.13;;;13.27;100.00
7026;BME280;3554;42.132;24.786;2022-12-07T12:10:38;99274.97;;;13.28;100.00
7026;BME280;3554;42.132;24.786;2022-12-07T12:16:14;99227.22;;;13.35;100.00
7026;BME280;3554;42.132;24.786;2022-12-07T12:19:01;99257.38;;;13.61;100.00
7026;BME280;3554;42.132;24.786;2022-12-07T12:21:34;99265.44;;;13.73;100.00
7026;BME280;3554;42.132;24.786;2022-12-07T12:24:04;99260.94;;;13.75;100.00
7026;BME280;3554;42.132;24.786;2022-12-07T12:26:37;99261.78;;;13.76;100.00
7026;BME280;3554;42.132;24.786;2022-12-07T12:29:06;99265.88;;;13.97;100.00
7026;BME280;3554;42.132;24.786;2022-12-07T12:31:47;99266.63;;;13.99;100.00
7026;BME280;3554;42.132;24.786;2022-12-07T12:34:37;99259.25;;;13.90;100.00
7026;BME280;3554;42.132;24.786;2022-12-07T12:42:59;99242.69;;;13.57;100.00
7026;BME280;3554;42.132;24.786;2022-12-07T12:45:27;99240.31;;;13.68;100.00
7026;BME280;3554;42.132;24.786;2022-12-07T12:47:56;99246.44;;;13.68;100.00
7026;BME280;3554;42.132;24.786;2022-12-07T12:50:26;99237.84;;;13.49;100.00
7026;BME280;3554;42.132;24.786;2022-12-07T12:53:01;99239.72;;;13.47;100.00
7026;BME280;3554;42.132;24.786;2022-12-07T12:58:44;99233.13;;;13.08;100.00
7026;BME280;3554;42.132;24.786;2022-12-07T13:01:44;99224.31;;;12.91;100.00
7026;BME280;3554;42.132;24.786;2022-12-07T13:04:28;99218.56;;;13.01;100.00
7026;BME280;3554;42.132;24.786;2022-12-07T13:06:57;99232.34;;;13.06;100.00
7026;BME280;3554;42.132;24.786;2022-12-07T13:09:27;99225.78;;;13.30;100.00
7026;BME280;3554;42.132;24.786;2022-12-07T13:11:59;99231.19;;;13.11;100.00
7026;BME280;3554;42.132;24.786;2022-12-07T13:17:55;99233.41;;;13.19;100.00
7026;BME280;3554;42.132;24.786;2022-12-07T13:20:45;99227.00;;;13.40;100.00
7026;BME280;3554;42.132;24.786;2022-12-07T13:23:12;99232.06;;;13.43;100.00
7026;BME280;3554;42.132;24.786;2022-12-07T13:25:51;99231.56;;;13.36;100.00
7026;BME280;3554;42.132;24.786;2022-12-07T13:28:22;99230.44;;;13.25;100.00
7026;BME280;3554;42.132;24.786;2022-12-07T13:31:14;99234.72;;;13.10;100.00
7026;BME280;3554;42.132;24.786;2022-12-07T13:33:45;99225.50;;;13.02;100.00
7026;BME280;3554;42.132;24.786;2022-12-07T13:36:19;99232.28;;;13.23;100.00
7026;BME280;3554;42.132;24.786;2022-12-07T13:38:53;99226.63;;;13.30;100.00